Strona główna
METAR-TAF:

METAR-TAF

Lotnisko :

Marshfield, Massachusetts, Stany Zjednoczone

Szerokość geograficzna: 42-05-54N, Długość geograficzna: 070-40-20W, wysokość: 3 m

Aktualna obserwacja pogody

Raport powstał 12 minut temu, godzina 09:35 UTC
Cisza
Temperatura -1°C
Wilgotność 80%
Ciśnienie 1016 hPa
Widzialność: 16.1 km
bezchmurnie

METAR: KGHG 210935Z AUTO 00000KT 10SM CLR M01/M04 A3000 RMK AO2

czas: 04:47 (09:47 UTC)


TAF: brakujący

Obserwacja i prognoza pogody dla ponad 4000 lotnisk (raport METAR i TAF).

Dostępne stacje oznaczono żółtymi i czerwonymi punktami na mapie.

Najedź kursorem aby zobaczyć nazwę stacji.

Kliknij aby zobaczyć obserwacje i prognozy pogody.

Aby zmienić mapę: kliknij na zielony przycisk z czarnym krzyżykiem, aby powiększyć; na zielony przycisk z myślnikiem, aby pomniejszyć; na zielone strzałki, aby przejść do map sąsiednich.


METAR-TAF: